KCAK/CAK METAR and TAF weather

Enter ICAO airport designator
Station Type Date Time Source
KCAK METAR 2019/10/18 06:51 UTC NOAA

KCAK 180651Z 28003KT 10SM OVC050 08/05 A2997 RMK AO2 SLP152 T00780050 $


Station Type Date Time Source
KCAK Decoded METAR 2019/10/18 06:51 UTC NOAA

AKRON-CANTON REGIONAL AIRPORT , OH, United States (KCAK) 40-55N 081-27W 377M
Oct 18, 2019 - 02:51 AM EDT / 2019.10.18 0651 UTC
Wind: from the W (280 degrees) at 3 MPH (3 KT):0
Visibility: 10 mile(s):0
Sky conditions: overcast
Temperature: 46.0 F (7.8 C)
Dew Point: 41.0 F (5.0 C)
Relative Humidity: 82%
Pressure (altimeter): 29.97 in. Hg (1014 hPa)
ob: KCAK 180651Z 28003KT 10SM OVC050 08/05 A2997 RMK AO2 SLP152 T00780050
cycle: 7

Station Type Date Time Source
KCAK TAF 2019/10/18 06:24 UTC NOAA

TAF KCAK 180522Z 1806/1906 31006KT P6SM BKN040
FM182100 VRB03KT P6SM SCT250

Example: see airport list